Aviation Digital Data Service (ADDS)

Output produced by METARs form (1507 UTC 20 March 2019)
found at http://www.aviationweather.gov/metar/data/
 
METAR text: KBOS 201454Z 12007KT 10SM FEW090 06/M06 A3041 RMK AO2 SLP298 T00561061 58005
Conditions at: KBOS (BOSTON , MA, US) observed 1454 UTC 20 March 2019
Temperature: 5.6°C (42°F)
Dewpoint: -6.1°C (21°F) [RH = 43%]
Pressure (altimeter): 30.41 inches Hg (1029.9 mb)
[Sea-level pressure: 1029.8 mb]
Winds: from the ESE (120 degrees) at 8 MPH (7 knots; 3.6 m/s)
Visibility: 10 or more miles (16+ km)
Ceiling: at least 12,000 feet AGL
Clouds: few clouds at 9000 feet AGL
Weather: no significant weather observed at this time

METAR text: KBOS 201354Z 15005KT 10SM FEW090 05/M07 A3043 RMK AO2 SLP302 T00501072
Conditions at: KBOS (BOSTON , MA, US) observed 1354 UTC 20 March 2019
Temperature: 5.0°C (41°F)
Dewpoint: -7.2°C (19°F) [RH = 41%]
Pressure (altimeter): 30.43 inches Hg (1030.6 mb)
[Sea-level pressure: 1030.2 mb]
Winds: from the SSE (150 degrees) at 6 MPH (5 knots; 2.6 m/s)
Visibility: 10 or more miles (16+ km)
Ceiling: at least 12,000 feet AGL
Clouds: few clouds at 9000 feet AGL
Weather: no significant weather observed at this time

METAR text: KBOS 201254Z 00000KT 10SM FEW090 04/M08 A3043 RMK AO2 SLP303 T00441078
Conditions at: KBOS (BOSTON , MA, US) observed 1254 UTC 20 March 2019
Temperature: 4.4°C (40°F)
Dewpoint: -7.8°C (18°F) [RH = 41%]
Pressure (altimeter): 30.43 inches Hg (1030.6 mb)
[Sea-level pressure: 1030.3 mb]
Winds: calm
Visibility: 10 or more miles (16+ km)
Ceiling: at least 12,000 feet AGL
Clouds: few clouds at 9000 feet AGL
Weather: no significant weather observed at this time

METAR text: KBOS 201154Z 23004KT 10SM FEW090 02/M08 A3043 RMK AO2 SLP303 T00221078 10022 21006 53009
Conditions at: KBOS (BOSTON , MA, US) observed 1154 UTC 20 March 2019
Temperature: 2.2°C (36°F)
Dewpoint: -7.8°C (18°F) [RH = 47%]
Pressure (altimeter): 30.43 inches Hg (1030.6 mb)
[Sea-level pressure: 1030.3 mb]
Winds: from the SW (230 degrees) at 5 MPH (4 knots; 2.1 m/s)
Visibility: 10 or more miles (16+ km)
Ceiling: at least 12,000 feet AGL
Clouds: few clouds at 9000 feet AGL
Weather: no significant weather observed at this time

METAR text: KBOS 201054Z 00000KT 10SM FEW080 01/M07 A3042 RMK AO2 SLP300 T00061072
Conditions at: KBOS (BOSTON , MA, US) observed 1054 UTC 20 March 2019
Temperature: 0.6°C (33°F)
Dewpoint: -7.2°C (19°F) [RH = 56%]
Pressure (altimeter): 30.42 inches Hg (1030.2 mb)
[Sea-level pressure: 1030.0 mb]
Winds: calm
Visibility: 10 or more miles (16+ km)
Ceiling: at least 12,000 feet AGL
Clouds: few clouds at 8000 feet AGL
Weather: no significant weather observed at this time

METAR text: KBOS 200954Z 30005KT 10SM FEW085 02/M09 A3041 RMK AO2 SLP296 T00171089 $
Conditions at: KBOS (BOSTON , MA, US) observed 0954 UTC 20 March 2019
Temperature: 1.7°C (35°F)
Dewpoint: -8.9°C (16°F) [RH = 45%]
Pressure (altimeter): 30.41 inches Hg (1029.9 mb)
[Sea-level pressure: 1029.6 mb]
Winds: from the WNW (300 degrees) at 6 MPH (5 knots; 2.6 m/s)
Visibility: 10 or more miles (16+ km)
Ceiling: at least 12,000 feet AGL
Clouds: few clouds at 8500 feet AGL
Weather:
SOME DATA ABOVE MAY BE INACCURATE!!!
"$" is an indication the sensor requires maintenance

METAR text: KBOS 200854Z 28004KT 10SM FEW085 02/M09 A3040 RMK AO2 SLP294 T00171089 55003 $
Conditions at: KBOS (BOSTON , MA, US) observed 0854 UTC 20 March 2019
Temperature: 1.7°C (35°F)
Dewpoint: -8.9°C (16°F) [RH = 45%]
Pressure (altimeter): 30.40 inches Hg (1029.5 mb)
[Sea-level pressure: 1029.4 mb]
Winds: from the W (280 degrees) at 5 MPH (4 knots; 2.1 m/s)
Visibility: 10 or more miles (16+ km)
Ceiling: at least 12,000 feet AGL
Clouds: few clouds at 8500 feet AGL
Weather:
SOME DATA ABOVE MAY BE INACCURATE!!!
"$" is an indication the sensor requires maintenance

METAR text: KBOS 200754Z 28005KT 10SM CLR 02/M09 A3040 RMK AO2 SLP292 T00221094 $
Conditions at: KBOS (BOSTON , MA, US) observed 0754 UTC 20 March 2019
Temperature: 2.2°C (36°F)
Dewpoint: -9.4°C (15°F) [RH = 42%]
Pressure (altimeter): 30.40 inches Hg (1029.5 mb)
[Sea-level pressure: 1029.2 mb]
Winds: from the W (280 degrees) at 6 MPH (5 knots; 2.6 m/s)
Visibility: 10 or more miles (16+ km)
Ceiling: at least 12,000 feet AGL
Clouds: sky clear below 12,000 feet AGL
Weather:
SOME DATA ABOVE MAY BE INACCURATE!!!
"$" is an indication the sensor requires maintenance

METAR text: KBOS 200654Z 28005KT 10SM CLR 02/M09 A3041 RMK AO2 SLP296 T00171094 $
Conditions at: KBOS (BOSTON , MA, US) observed 0654 UTC 20 March 2019
Temperature: 1.7°C (35°F)
Dewpoint: -9.4°C (15°F) [RH = 43%]
Pressure (altimeter): 30.41 inches Hg (1029.9 mb)
[Sea-level pressure: 1029.6 mb]
Winds: from the W (280 degrees) at 6 MPH (5 knots; 2.6 m/s)
Visibility: 10 or more miles (16+ km)
Ceiling: at least 12,000 feet AGL
Clouds: sky clear below 12,000 feet AGL
Weather:
SOME DATA ABOVE MAY BE INACCURATE!!!
"$" is an indication the sensor requires maintenance

METAR text: KBOS 200554Z 27004KT 10SM CLR 02/M10 A3041 RMK AO2 SLP297 T00221100 10044 20006 51003
Conditions at: KBOS (BOSTON , MA, US) observed 0554 UTC 20 March 2019
Temperature: 2.2°C (36°F)
Dewpoint: -10.0°C (14°F) [RH = 40%]
Pressure (altimeter): 30.41 inches Hg (1029.9 mb)
[Sea-level pressure: 1029.7 mb]
Winds: from the W (270 degrees) at 5 MPH (4 knots; 2.1 m/s)
Visibility: 10 or more miles (16+ km)
Ceiling: at least 12,000 feet AGL
Clouds: sky clear below 12,000 feet AGL
Weather: no significant weather observed at this time

METAR text: KBOS 200454Z 35003KT 10SM CLR 01/M05 A3041 RMK AO2 SLP296 T00111050 400890000
Conditions at: KBOS (BOSTON , MA, US) observed 0454 UTC 20 March 2019
Temperature: 1.1°C (34°F)
Dewpoint: -5.0°C (23°F) [RH = 64%]
Pressure (altimeter): 30.41 inches Hg (1029.9 mb)
[Sea-level pressure: 1029.6 mb]
Winds: from the N (350 degrees) at 3 MPH (3 knots; 1.5 m/s)
Visibility: 10 or more miles (16+ km)
Ceiling: at least 12,000 feet AGL
Clouds: sky clear below 12,000 feet AGL
Weather: no significant weather observed at this time

METAR text: KBOS 200354Z 00000KT 10SM FEW070 03/M06 A3041 RMK AO2 SLP296 T00331056
Conditions at: KBOS (BOSTON , MA, US) observed 0354 UTC 20 March 2019
Temperature: 3.3°C (38°F)
Dewpoint: -5.6°C (22°F) [RH = 52%]
Pressure (altimeter): 30.41 inches Hg (1029.9 mb)
[Sea-level pressure: 1029.6 mb]
Winds: calm
Visibility: 10 or more miles (16+ km)
Ceiling: at least 12,000 feet AGL
Clouds: few clouds at 7000 feet AGL
Weather: no significant weather observed at this time

METAR text: KBOS 200254Z 00000KT 10SM CLR 03/M07 A3040 RMK AO2 SLP294 T00331072 51009
Conditions at: KBOS (BOSTON , MA, US) observed 0254 UTC 20 March 2019
Temperature: 3.3°C (38°F)
Dewpoint: -7.2°C (19°F) [RH = 46%]
Pressure (altimeter): 30.40 inches Hg (1029.5 mb)
[Sea-level pressure: 1029.4 mb]
Winds: calm
Visibility: 10 or more miles (16+ km)
Ceiling: at least 12,000 feet AGL
Clouds: sky clear below 12,000 feet AGL
Weather: no significant weather observed at this time

METAR text: KBOS 200154Z 06003KT 10SM FEW075 03/M08 A3040 RMK AO2 SLP292 T00331078
Conditions at: KBOS (BOSTON , MA, US) observed 0154 UTC 20 March 2019
Temperature: 3.3°C (38°F)
Dewpoint: -7.8°C (18°F) [RH = 44%]
Pressure (altimeter): 30.40 inches Hg (1029.5 mb)
[Sea-level pressure: 1029.2 mb]
Winds: from the ENE (60 degrees) at 3 MPH (3 knots; 1.5 m/s)
Visibility: 10 or more miles (16+ km)
Ceiling: at least 12,000 feet AGL
Clouds: few clouds at 7500 feet AGL
Weather: no significant weather observed at this time

METAR text: KBOS 200054Z 02004KT 10SM FEW075 04/M08 A3039 RMK AO2 SLP289 T00391083
Conditions at: KBOS (BOSTON , MA, US) observed 0054 UTC 20 March 2019
Temperature: 3.9°C (39°F)
Dewpoint: -8.3°C (17°F) [RH = 40%]
Pressure (altimeter): 30.39 inches Hg (1029.2 mb)
[Sea-level pressure: 1028.9 mb]
Winds: from the NNE (20 degrees) at 5 MPH (4 knots; 2.1 m/s)
Visibility: 10 or more miles (16+ km)
Ceiling: at least 12,000 feet AGL
Clouds: few clouds at 7500 feet AGL
Weather: no significant weather observed at this time

METAR text: KBOS 192354Z 02003KT 10SM SCT075 04/M06 A3037 RMK AO2 SLP285 T00391061 10089 20039 53017
Conditions at: KBOS (BOSTON , MA, US) observed 2354 UTC 19 March 2019
Temperature: 3.9°C (39°F)
Dewpoint: -6.1°C (21°F) [RH = 48%]
Pressure (altimeter): 30.37 inches Hg (1028.5 mb)
[Sea-level pressure: 1028.5 mb]
Winds: from the NNE (20 degrees) at 3 MPH (3 knots; 1.5 m/s)
Visibility: 10 or more miles (16+ km)
Ceiling: at least 12,000 feet AGL
Clouds: scattered clouds at 7500 feet AGL
Weather: no significant weather observed at this time

METAR text: KBOS 192254Z 30007KT 10SM SCT075 06/M12 A3035 RMK AO2 SLP277 T00611122
Conditions at: KBOS (BOSTON , MA, US) observed 2254 UTC 19 March 2019
Temperature: 6.1°C (43°F)
Dewpoint: -12.2°C (10°F) [RH = 25%]
Pressure (altimeter): 30.35 inches Hg (1027.9 mb)
[Sea-level pressure: 1027.7 mb]
Winds: from the WNW (300 degrees) at 8 MPH (7 knots; 3.6 m/s)
Visibility: 10 or more miles (16+ km)
Ceiling: at least 12,000 feet AGL
Clouds: scattered clouds at 7500 feet AGL
Weather: no significant weather observed at this time

METAR text: KBOS 192154Z 30009KT 10SM BKN080 07/M13 A3033 RMK AO2 SLP270 T00721128
Conditions at: KBOS (BOSTON , MA, US) observed 2154 UTC 19 March 2019
Temperature: 7.2°C (45°F)
Dewpoint: -12.8°C ( 9°F) [RH = 23%]
Pressure (altimeter): 30.33 inches Hg (1027.2 mb)
[Sea-level pressure: 1027.0 mb]
Winds: from the WNW (300 degrees) at 10 MPH (9 knots; 4.6 m/s)
Visibility: 10 or more miles (16+ km)
Ceiling: 8000 feet AGL
Clouds: broken clouds at 8000 feet AGL
Weather: no significant weather observed at this time

METAR text: KBOS 192054Z 30013KT 10SM SCT075 07/M12 A3032 RMK AO2 SLP267 T00721122 56008
Conditions at: KBOS (BOSTON , MA, US) observed 2054 UTC 19 March 2019
Temperature: 7.2°C (45°F)
Dewpoint: -12.2°C (10°F) [RH = 24%]
Pressure (altimeter): 30.32 inches Hg (1026.8 mb)
[Sea-level pressure: 1026.7 mb]
Winds: from the WNW (300 degrees) at 15 MPH (13 knots; 6.7 m/s)
Visibility: 10 or more miles (16+ km)
Ceiling: at least 12,000 feet AGL
Clouds: scattered clouds at 7500 feet AGL
Weather: no significant weather observed at this time

METAR text: KBOS 191954Z 30011KT 10SM SCT070 07/M12 A3033 RMK AO2 SLP269 T00671117
Conditions at: KBOS (BOSTON , MA, US) observed 1954 UTC 19 March 2019
Temperature: 6.7°C (44°F)
Dewpoint: -11.7°C (11°F) [RH = 25%]
Pressure (altimeter): 30.33 inches Hg (1027.2 mb)
[Sea-level pressure: 1026.9 mb]
Winds: from the WNW (300 degrees) at 13 MPH (11 knots; 5.7 m/s)
Visibility: 10 or more miles (16+ km)
Ceiling: at least 12,000 feet AGL
Clouds: scattered clouds at 7000 feet AGL
Weather: no significant weather observed at this time

METAR text: KBOS 191854Z 29011G19KT 10SM R04R/5500VP6000FT BKN070 08/M11 A3034 RMK AO2 SLP271 T00831111
Conditions at: KBOS (BOSTON , MA, US) observed 1854 UTC 19 March 2019
Temperature: 8.3°C (47°F)
Dewpoint: -11.1°C (12°F) [RH = 24%]
Pressure (altimeter): 30.34 inches Hg (1027.5 mb)
[Sea-level pressure: 1027.1 mb]
Winds: from the WNW (290 degrees) at 13 MPH (11 knots; 5.7 m/s)
gusting to 22 MPH (19 knots; 9.8 m/s)
Visibility: 10 or more miles (16+ km)
Ceiling: 7000 feet AGL
Clouds: broken clouds at 7000 feet AGL
Weather: no significant weather observed at this time

METAR text: KBOS 191754Z 25008G17KT 10SM BKN065 07/M11 A3035 RMK AO2 SLP276 T00721106 10078 20011 58013
Conditions at: KBOS (BOSTON , MA, US) observed 1754 UTC 19 March 2019
Temperature: 7.2°C (45°F)
Dewpoint: -10.6°C (13°F) [RH = 27%]
Pressure (altimeter): 30.35 inches Hg (1027.9 mb)
[Sea-level pressure: 1027.6 mb]
Winds: from the WSW (250 degrees) at 9 MPH (8 knots; 4.1 m/s)
gusting to 20 MPH (17 knots; 8.7 m/s)
Visibility: 10 or more miles (16+ km)
Ceiling: 6500 feet AGL
Clouds: broken clouds at 6500 feet AGL
Weather: no significant weather observed at this time

METAR text: KBOS 191654Z VRB03KT 10SM SCT060 06/M10 A3037 RMK AO2 SLP282 T00561100
Conditions at: KBOS (BOSTON , MA, US) observed 1654 UTC 19 March 2019
Temperature: 5.6°C (42°F)
Dewpoint: -10.0°C (14°F) [RH = 31%]
Pressure (altimeter): 30.37 inches Hg (1028.5 mb)
[Sea-level pressure: 1028.2 mb]
Winds: variable direction winds at 3 MPH (3 knots; 1.5 m/s)
Visibility: 10 or more miles (16+ km)
Ceiling: at least 12,000 feet AGL
Clouds: scattered clouds at 6000 feet AGL
Weather: no significant weather observed at this time

METAR text: KBOS 191554Z 33007G15KT 290V350 10SM SCT046 06/M08 A3037 RMK AO2 SLP284 T00561083
Conditions at: KBOS (BOSTON , MA, US) observed 1554 UTC 19 March 2019
Temperature: 5.6°C (42°F)
Dewpoint: -8.3°C (17°F) [RH = 36%]
Pressure (altimeter): 30.37 inches Hg (1028.5 mb)
[Sea-level pressure: 1028.4 mb]
Winds: from the NNW (330 degrees) at 8 MPH (7 knots; 3.6 m/s)
gusting to 17 MPH (15 knots; 7.7 m/s)
Visibility: 10 or more miles (16+ km)
Ceiling: at least 12,000 feet AGL
Clouds: scattered clouds at 4600 feet AGL
Weather: no significant weather observed at this time

METAR text: KBOS 191454Z 29010KT 10SM FEW050 04/M07 A3038 RMK AO2 SLP288 T00391067 51008
Conditions at: KBOS (BOSTON , MA, US) observed 1454 UTC 19 March 2019
Temperature: 3.9°C (39°F)
Dewpoint: -6.7°C (20°F) [RH = 46%]
Pressure (altimeter): 30.38 inches Hg (1028.9 mb)
[Sea-level pressure: 1028.8 mb]
Winds: from the WNW (290 degrees) at 12 MPH (10 knots; 5.1 m/s)
Visibility: 10 or more miles (16+ km)
Ceiling: at least 12,000 feet AGL
Clouds: few clouds at 5000 feet AGL
Weather: no significant weather observed at this time

METAR text: KBOS 191354Z 31011KT 10SM FEW050 03/M07 A3038 RMK AO2 SLP287 T00331067
Conditions at: KBOS (BOSTON , MA, US) observed 1354 UTC 19 March 2019
Temperature: 3.3°C (38°F)
Dewpoint: -6.7°C (20°F) [RH = 48%]
Pressure (altimeter): 30.38 inches Hg (1028.9 mb)
[Sea-level pressure: 1028.7 mb]
Winds: from the NW (310 degrees) at 13 MPH (11 knots; 5.7 m/s)
Visibility: 10 or more miles (16+ km)
Ceiling: at least 12,000 feet AGL
Clouds: few clouds at 5000 feet AGL
Weather: no significant weather observed at this time

METAR text: KBOS 191254Z 29009KT 10SM FEW080 02/M08 A3037 RMK AO2 SLP284 T00221078
Conditions at: KBOS (BOSTON , MA, US) observed 1254 UTC 19 March 2019
Temperature: 2.2°C (36°F)
Dewpoint: -7.8°C (18°F) [RH = 47%]
Pressure (altimeter): 30.37 inches Hg (1028.5 mb)
[Sea-level pressure: 1028.4 mb]
Winds: from the WNW (290 degrees) at 10 MPH (9 knots; 4.6 m/s)
Visibility: 10 or more miles (16+ km)
Ceiling: at least 12,000 feet AGL
Clouds: few clouds at 8000 feet AGL
Weather: no significant weather observed at this time

METAR text: KBOS 191154Z 28010KT 10SM FEW080 01/M08 A3036 RMK AO2 SLP281 T00111083 10022 20000 53017
Conditions at: KBOS (BOSTON , MA, US) observed 1154 UTC 19 March 2019
Temperature: 1.1°C (34°F)
Dewpoint: -8.3°C (17°F) [RH = 49%]
Pressure (altimeter): 30.36 inches Hg (1028.2 mb)
[Sea-level pressure: 1028.1 mb]
Winds: from the W (280 degrees) at 12 MPH (10 knots; 5.1 m/s)
Visibility: 10 or more miles (16+ km)
Ceiling: at least 12,000 feet AGL
Clouds: few clouds at 8000 feet AGL
Weather: no significant weather observed at this time

METAR text: KBOS 191054Z 28009KT 10SM BKN080 01/M09 A3034 RMK AO2 SLP274 T00061089
Conditions at: KBOS (BOSTON , MA, US) observed 1054 UTC 19 March 2019
Temperature: 0.6°C (33°F)
Dewpoint: -8.9°C (16°F) [RH = 49%]
Pressure (altimeter): 30.34 inches Hg (1027.5 mb)
[Sea-level pressure: 1027.4 mb]
Winds: from the W (280 degrees) at 10 MPH (9 knots; 4.6 m/s)
Visibility: 10 or more miles (16+ km)
Ceiling: 8000 feet AGL
Clouds: broken clouds at 8000 feet AGL
Weather: no significant weather observed at this time

METAR text: KBOS 190954Z 30007KT 10SM FEW060 01/M10 A3033 RMK AO2 SLP268 T00111100
Conditions at: KBOS (BOSTON , MA, US) observed 0954 UTC 19 March 2019
Temperature: 1.1°C (34°F)
Dewpoint: -10.0°C (14°F) [RH = 43%]
Pressure (altimeter): 30.33 inches Hg (1027.2 mb)
[Sea-level pressure: 1026.8 mb]
Winds: from the WNW (300 degrees) at 8 MPH (7 knots; 3.6 m/s)
Visibility: 10 or more miles (16+ km)
Ceiling: at least 12,000 feet AGL
Clouds: few clouds at 6000 feet AGL
Weather: no significant weather observed at this time

METAR text: KBOS 190854Z 29009KT 10SM FEW060 01/M11 A3031 RMK AO2 SLP264 T00111106 53001
Conditions at: KBOS (BOSTON , MA, US) observed 0854 UTC 19 March 2019
Temperature: 1.1°C (34°F)
Dewpoint: -10.6°C (13°F) [RH = 41%]
Pressure (altimeter): 30.31 inches Hg (1026.5 mb)
[Sea-level pressure: 1026.4 mb]
Winds: from the WNW (290 degrees) at 10 MPH (9 knots; 4.6 m/s)
Visibility: 10 or more miles (16+ km)
Ceiling: at least 12,000 feet AGL
Clouds: few clouds at 6000 feet AGL
Weather: no significant weather observed at this time

METAR text: KBOS 190754Z 28006KT 10SM FEW060 02/M11 A3031 RMK AO2 SLP261 T00171111
Conditions at: KBOS (BOSTON , MA, US) observed 0754 UTC 19 March 2019
Temperature: 1.7°C (35°F)
Dewpoint: -11.1°C (12°F) [RH = 38%]
Pressure (altimeter): 30.31 inches Hg (1026.5 mb)
[Sea-level pressure: 1026.1 mb]
Winds: from the W (280 degrees) at 7 MPH (6 knots; 3.1 m/s)
Visibility: 10 or more miles (16+ km)
Ceiling: at least 12,000 feet AGL
Clouds: few clouds at 6000 feet AGL
Weather: no significant weather observed at this time

METAR text: KBOS 190654Z 29007KT 10SM FEW060 02/M12 A3031 RMK AO2 SLP264 T00171122
Conditions at: KBOS (BOSTON , MA, US) observed 0654 UTC 19 March 2019
Temperature: 1.7°C (35°F)
Dewpoint: -12.2°C (10°F) [RH = 35%]
Pressure (altimeter): 30.31 inches Hg (1026.5 mb)
[Sea-level pressure: 1026.4 mb]
Winds: from the WNW (290 degrees) at 8 MPH (7 knots; 3.6 m/s)
Visibility: 10 or more miles (16+ km)
Ceiling: at least 12,000 feet AGL
Clouds: few clouds at 6000 feet AGL
Weather: no significant weather observed at this time

METAR text: KBOS 190554Z 30005KT 10SM CLR 02/M13 A3031 RMK AO2 SLP263 T00221128 10044 20022 53001
Conditions at: KBOS (BOSTON , MA, US) observed 0554 UTC 19 March 2019
Temperature: 2.2°C (36°F)
Dewpoint: -12.8°C ( 9°F) [RH = 32%]
Pressure (altimeter): 30.31 inches Hg (1026.5 mb)
[Sea-level pressure: 1026.3 mb]
Winds: from the WNW (300 degrees) at 6 MPH (5 knots; 2.6 m/s)
Visibility: 10 or more miles (16+ km)
Ceiling: at least 12,000 feet AGL
Clouds: sky clear below 12,000 feet AGL
Weather: no significant weather observed at this time

METAR text: KBOS 190454Z 28006KT 10SM FEW060 03/M12 A3030 RMK AO2 SLP260 T00281122 400671022
Conditions at: KBOS (BOSTON , MA, US) observed 0454 UTC 19 March 2019
Temperature: 2.8°C (37°F)
Dewpoint: -12.2°C (10°F) [RH = 32%]
Pressure (altimeter): 30.30 inches Hg (1026.2 mb)
[Sea-level pressure: 1026.0 mb]
Winds: from the W (280 degrees) at 7 MPH (6 knots; 3.1 m/s)
Visibility: 10 or more miles (16+ km)
Ceiling: at least 12,000 feet AGL
Clouds: few clouds at 6000 feet AGL
Weather: no significant weather observed at this time

METAR text: KBOS 190354Z 28005KT 10SM FEW060 03/M12 A3031 RMK AO2 SLP262 T00281122
Conditions at: KBOS (BOSTON , MA, US) observed 0354 UTC 19 March 2019
Temperature: 2.8°C (37°F)
Dewpoint: -12.2°C (10°F) [RH = 32%]
Pressure (altimeter): 30.31 inches Hg (1026.5 mb)
[Sea-level pressure: 1026.2 mb]
Winds: from the W (280 degrees) at 6 MPH (5 knots; 2.6 m/s)
Visibility: 10 or more miles (16+ km)
Ceiling: at least 12,000 feet AGL
Clouds: few clouds at 6000 feet AGL
Weather: no significant weather observed at this time

Forecast for: KBOS (BOSTON , MA, US)
Text: KBOS 201502Z 2015/2118 12007KT P6SM FEW090
Forecast period: 1500 to 1900 UTC 20 March 2019
Forecast type: FROM: standard forecast or significant change
Winds: from the ESE (120 degrees) at 8 MPH (7 knots; 3.6 m/s)
Visibility: 6 or more miles 10+ km)
Ceiling: at least 12,000 feet AGL
Clouds: few clouds at 9000 feet AGL
Weather: no significant weather forecast for this period
Text: FM201900 18009KT P6SM FEW200
Forecast period: 1900 UTC 20 March 2019 to 1300 UTC 21 March 2019
Forecast type: FROM: standard forecast or significant change
Winds: from the S (180 degrees) at 10 MPH (9 knots; 4.6 m/s)
Visibility: 6 or more miles 10+ km)
Ceiling: at least 12,000 feet AGL
Clouds: few clouds at 20000 feet AGL
Weather: no significant weather forecast for this period
Text: FM211300 16007KT P6SM BKN100
Forecast period: 1300 to 1800 UTC 21 March 2019
Forecast type: FROM: standard forecast or significant change
Winds: from the SSE (160 degrees) at 8 MPH (7 knots; 3.6 m/s)
Visibility: 6 or more miles 10+ km)
Ceiling: 10000 feet AGL
Clouds: broken clouds at 10000 feet AGL
Weather: no significant weather forecast for this period